sensor_id;sensor_type;location;lat;lon;timestamp;P1;durP1;ratioP1;P2;durP2;ratioP2
16193;SDS011;8204;53.582;10.080;2024-01-16T00:00:29;3.60;;;3.27;;
16193;SDS011;8204;53.582;10.080;2024-01-16T00:02:55;4.50;;;3.23;;
16193;SDS011;8204;53.582;10.080;2024-01-16T00:05:20;4.10;;;3.63;;
16193;SDS011;8204;53.582;10.080;2024-01-16T00:07:46;3.53;;;2.83;;
16193;SDS011;8204;53.582;10.080;2024-01-16T00:10:12;4.57;;;3.57;;
16193;SDS011;8204;53.582;10.080;2024-01-16T00:12:39;3.93;;;2.90;;
16193;SDS011;8204;53.582;10.080;2024-01-16T00:15:05;3.30;;;2.97;;
16193;SDS011;8204;53.582;10.080;2024-01-16T00:17:32;3.10;;;2.80;;
16193;SDS011;8204;53.582;10.080;2024-01-16T00:19:58;4.60;;;3.13;;
16193;SDS011;8204;53.582;10.080;2024-01-16T00:22:27;5.70;;;2.77;;
16193;SDS011;8204;53.582;10.080;2024-01-16T00:24:53;3.33;;;2.63;;
16193;SDS011;8204;53.582;10.080;2024-01-16T00:27:19;3.53;;;3.03;;
16193;SDS011;8204;53.582;10.080;2024-01-16T00:29:46;3.20;;;2.90;;
16193;SDS011;8204;53.582;10.080;2024-01-16T00:32:13;3.33;;;3.03;;
16193;SDS011;8204;53.582;10.080;2024-01-16T00:34:42;5.37;;;3.57;;
16193;SDS011;8204;53.582;10.080;2024-01-16T00:37:08;4.33;;;3.47;;
16193;SDS011;8204;53.582;10.080;2024-01-16T00:39:34;3.80;;;2.70;;
16193;SDS011;8204;53.582;10.080;2024-01-16T00:42:04;6.30;;;3.03;;
16193;SDS011;8204;53.582;10.080;2024-01-16T00:44:31;8.17;;;4.50;;
16193;SDS011;8204;53.582;10.080;2024-01-16T00:46:57;6.13;;;4.20;;
16193;SDS011;8204;53.582;10.080;2024-01-16T00:49:22;4.43;;;3.73;;
16193;SDS011;8204;53.582;10.080;2024-01-16T00:51:48;4.00;;;3.57;;
16193;SDS011;8204;53.582;10.080;2024-01-16T00:54:13;5.13;;;4.20;;
16193;SDS011;8204;53.582;10.080;2024-01-16T00:56:41;4.97;;;4.53;;
16193;SDS011;8204;53.582;10.080;2024-01-16T00:59:07;5.20;;;4.70;;
16193;SDS011;8204;53.582;10.080;2024-01-16T01:01:32;6.90;;;5.40;;
16193;SDS011;8204;53.582;10.080;2024-01-16T01:03:58;5.90;;;5.40;;
16193;SDS011;8204;53.582;10.080;2024-01-16T01:06:24;4.50;;;4.10;;
16193;SDS011;8204;53.582;10.080;2024-01-16T01:08:50;6.10;;;4.90;;
16193;SDS011;8204;53.582;10.080;2024-01-16T01:11:17;4.43;;;4.00;;
16193;SDS011;8204;53.582;10.080;2024-01-16T01:13:42;4.07;;;3.77;;
16193;SDS011;8204;53.582;10.080;2024-01-16T01:16:08;6.60;;;4.53;;
16193;SDS011;8204;53.582;10.080;2024-01-16T01:18:37;4.93;;;4.43;;
16193;SDS011;8204;53.582;10.080;2024-01-16T01:21:03;4.43;;;4.00;;
16193;SDS011;8204;53.582;10.080;2024-01-16T01:23:30;4.53;;;4.10;;
16193;SDS011;8204;53.582;10.080;2024-01-16T01:25:59;5.53;;;4.67;;
16193;SDS011;8204;53.582;10.080;2024-01-16T01:28:26;5.13;;;4.07;;
16193;SDS011;8204;53.582;10.080;2024-01-16T01:30:52;4.30;;;3.90;;
16193;SDS011;8204;53.582;10.080;2024-01-16T01:33:17;4.63;;;4.10;;
16193;SDS011;8204;53.582;10.080;2024-01-16T01:35:43;4.03;;;3.73;;
16193;SDS011;8204;53.582;10.080;2024-01-16T01:38:09;4.27;;;3.87;;
16193;SDS011;8204;53.582;10.080;2024-01-16T01:40:35;4.93;;;4.07;;
16193;SDS011;8204;53.582;10.080;2024-01-16T01:43:19;5.00;;;3.73;;
16193;SDS011;8204;53.582;10.080;2024-01-16T01:45:48;4.13;;;3.77;;
16193;SDS011;8204;53.582;10.080;2024-01-16T01:48:19;6.20;;;4.40;;
16193;SDS011;8204;53.582;10.080;2024-01-16T01:50:45;6.40;;;3.90;;
16193;SDS011;8204;53.582;10.080;2024-01-16T01:53:11;3.93;;;3.63;;
16193;SDS011;8204;53.582;10.080;2024-01-16T01:55:36;4.70;;;4.13;;
16193;SDS011;8204;53.582;10.080;2024-01-16T01:58:02;5.13;;;4.70;;
16193;SDS011;8204;53.582;10.080;2024-01-16T02:00:30;3.73;;;3.37;;
16193;SDS011;8204;53.582;10.080;2024-01-16T02:02:56;4.60;;;4.13;;
16193;SDS011;8204;53.582;10.080;2024-01-16T02:05:21;5.17;;;4.50;;
16193;SDS011;8204;53.582;10.080;2024-01-16T02:07:47;8.40;;;4.43;;
16193;SDS011;8204;53.582;10.080;2024-01-16T02:10:14;5.20;;;4.67;;
16193;SDS011;8204;53.582;10.080;2024-01-16T02:12:39;9.97;;;4.23;;
16193;SDS011;8204;53.582;10.080;2024-01-16T02:15:04;7.67;;;5.67;;
16193;SDS011;8204;53.582;10.080;2024-01-16T02:17:30;4.87;;;4.17;;
16193;SDS011;8204;53.582;10.080;2024-01-16T02:19:56;7.30;;;5.53;;
16193;SDS011;8204;53.582;10.080;2024-01-16T02:22:23;5.90;;;5.03;;
16193;SDS011;8204;53.582;10.080;2024-01-16T02:24:53;4.77;;;4.37;;
16193;SDS011;8204;53.582;10.080;2024-01-16T02:27:20;6.93;;;4.83;;
16193;SDS011;8204;53.582;10.080;2024-01-16T02:29:46;7.40;;;4.63;;
16193;SDS011;8204;53.582;10.080;2024-01-16T02:32:12;5.53;;;5.03;;
16193;SDS011;8204;53.582;10.080;2024-01-16T02:34:38;4.90;;;4.40;;
16193;SDS011;8204;53.582;10.080;2024-01-16T02:37:03;4.53;;;4.13;;
16193;SDS011;8204;53.582;10.080;2024-01-16T02:39:30;5.67;;;4.97;;
16193;SDS011;8204;53.582;10.080;2024-01-16T02:41:55;5.40;;;4.97;;
16193;SDS011;8204;53.582;10.080;2024-01-16T02:44:22;5.50;;;5.03;;
16193;SDS011;8204;53.582;10.080;2024-01-16T02:46:48;5.97;;;4.60;;
16193;SDS011;8204;53.582;10.080;2024-01-16T02:49:13;5.00;;;4.40;;
16193;SDS011;8204;53.582;10.080;2024-01-16T02:51:38;5.53;;;4.40;;
16193;SDS011;8204;53.582;10.080;2024-01-16T02:54:06;5.13;;;4.63;;
16193;SDS011;8204;53.582;10.080;2024-01-16T02:56:32;5.57;;;4.40;;
16193;SDS011;8204;53.582;10.080;2024-01-16T02:58:58;5.87;;;5.37;;
16193;SDS011;8204;53.582;10.080;2024-01-16T03:01:24;5.70;;;4.90;;
16193;SDS011;8204;53.582;10.080;2024-01-16T03:03:50;6.73;;;5.27;;
16193;SDS011;8204;53.582;10.080;2024-01-16T03:06:22;6.90;;;5.13;;
16193;SDS011;8204;53.582;10.080;2024-01-16T03:08:50;7.80;;;6.50;;
16193;SDS011;8204;53.582;10.080;2024-01-16T03:11:17;6.43;;;5.83;;
16193;SDS011;8204;53.582;10.080;2024-01-16T03:13:43;7.30;;;5.80;;
16193;SDS011;8204;53.582;10.080;2024-01-16T03:16:11;8.90;;;8.13;;
16193;SDS011;8204;53.582;10.080;2024-01-16T03:18:37;9.60;;;7.50;;
16193;SDS011;8204;53.582;10.080;2024-01-16T03:21:05;10.23;;;7.03;;
16193;SDS011;8204;53.582;10.080;2024-01-16T03:23:31;9.23;;;7.97;;
16193;SDS011;8204;53.582;10.080;2024-01-16T03:25:57;10.83;;;9.40;;
16193;SDS011;8204;53.582;10.080;2024-01-16T03:28:23;10.80;;;9.80;;
16193;SDS011;8204;53.582;10.080;2024-01-16T03:30:48;13.23;;;10.83;;
16193;SDS011;8204;53.582;10.080;2024-01-16T03:33:13;11.53;;;10.30;;
16193;SDS011;8204;53.582;10.080;2024-01-16T03:35:39;12.07;;;10.90;;
16193;SDS011;8204;53.582;10.080;2024-01-16T03:38:06;11.93;;;10.10;;
16193;SDS011;8204;53.582;10.080;2024-01-16T03:40:32;12.20;;;11.07;;
16193;SDS011;8204;53.582;10.080;2024-01-16T03:43:01;10.73;;;9.70;;
16193;SDS011;8204;53.582;10.080;2024-01-16T03:45:28;9.87;;;7.93;;
16193;SDS011;8204;53.582;10.080;2024-01-16T03:47:56;11.43;;;9.27;;
16193;SDS011;8204;53.582;10.080;2024-01-16T03:50:21;9.43;;;8.23;;
16193;SDS011;8204;53.582;10.080;2024-01-16T03:52:47;9.57;;;8.57;;
16193;SDS011;8204;53.582;10.080;2024-01-16T03:55:13;9.20;;;8.30;;
16193;SDS011;8204;53.582;10.080;2024-01-16T03:57:39;8.47;;;7.63;;
16193;SDS011;8204;53.582;10.080;2024-01-16T04:00:05;11.53;;;9.70;;
16193;SDS011;8204;53.582;10.080;2024-01-16T04:02:31;8.23;;;7.53;;
16193;SDS011;8204;53.582;10.080;2024-01-16T04:04:58;9.47;;;8.50;;
16193;SDS011;8204;53.582;10.080;2024-01-16T04:07:24;11.30;;;8.83;;
16193;SDS011;8204;53.582;10.080;2024-01-16T04:09:52;9.70;;;8.90;;
16193;SDS011;8204;53.582;10.080;2024-01-16T04:12:18;8.63;;;7.77;;
16193;SDS011;8204;53.582;10.080;2024-01-16T04:14:44;9.27;;;8.43;;
16193;SDS011;8204;53.582;10.080;2024-01-16T04:17:09;8.53;;;7.70;;
16193;SDS011;8204;53.582;10.080;2024-01-16T04:19:35;11.30;;;9.77;;
16193;SDS011;8204;53.582;10.080;2024-01-16T04:22:01;9.17;;;8.17;;
16193;SDS011;8204;53.582;10.080;2024-01-16T04:24:27;11.17;;;8.60;;
16193;SDS011;8204;53.582;10.080;2024-01-16T04:26:53;9.37;;;8.23;;
16193;SDS011;8204;53.582;10.080;2024-01-16T04:29:19;9.50;;;8.70;;
16193;SDS011;8204;53.582;10.080;2024-01-16T04:31:44;10.93;;;8.83;;
16193;SDS011;8204;53.582;10.080;2024-01-16T04:34:10;9.30;;;7.87;;
16193;SDS011;8204;53.582;10.080;2024-01-16T04:36:37;11.07;;;9.93;;
16193;SDS011;8204;53.582;10.080;2024-01-16T04:39:05;13.43;;;8.70;;
16193;SDS011;8204;53.582;10.080;2024-01-16T04:41:31;12.73;;;9.17;;
16193;SDS011;8204;53.582;10.080;2024-01-16T04:43:56;9.73;;;8.83;;
16193;SDS011;8204;53.582;10.080;2024-01-16T04:46:22;10.53;;;8.37;;
16193;SDS011;8204;53.582;10.080;2024-01-16T04:48:48;9.30;;;8.30;;
16193;SDS011;8204;53.582;10.080;2024-01-16T04:51:15;10.83;;;7.60;;
16193;SDS011;8204;53.582;10.080;2024-01-16T04:53:40;9.60;;;8.40;;
16193;SDS011;8204;53.582;10.080;2024-01-16T04:56:05;7.90;;;7.17;;
16193;SDS011;8204;53.582;10.080;2024-01-16T04:58:32;8.70;;;7.87;;
16193;SDS011;8204;53.582;10.080;2024-01-16T05:00:58;8.53;;;7.63;;
16193;SDS011;8204;53.582;10.080;2024-01-16T05:03:24;8.97;;;7.30;;
16193;SDS011;8204;53.582;10.080;2024-01-16T05:05:50;8.90;;;8.10;;
16193;SDS011;8204;53.582;10.080;2024-01-16T05:08:15;8.57;;;7.77;;
16193;SDS011;8204;53.582;10.080;2024-01-16T05:10:41;8.43;;;7.63;;
16193;SDS011;8204;53.582;10.080;2024-01-16T05:13:07;7.60;;;5.97;;
16193;SDS011;8204;53.582;10.080;2024-01-16T05:15:32;9.03;;;7.27;;
16193;SDS011;8204;53.582;10.080;2024-01-16T05:17:58;8.83;;;7.57;;
16193;SDS011;8204;53.582;10.080;2024-01-16T05:20:24;10.97;;;7.43;;
16193;SDS011;8204;53.582;10.080;2024-01-16T05:22:50;7.90;;;7.20;;
16193;SDS011;8204;53.582;10.080;2024-01-16T05:25:16;7.67;;;6.97;;
16193;SDS011;8204;53.582;10.080;2024-01-16T05:27:42;7.63;;;6.77;;
16193;SDS011;8204;53.582;10.080;2024-01-16T05:30:09;8.77;;;6.87;;
16193;SDS011;8204;53.582;10.080;2024-01-16T05:32:35;7.77;;;6.97;;
16193;SDS011;8204;53.582;10.080;2024-01-16T05:35:01;6.23;;;5.63;;
16193;SDS011;8204;53.582;10.080;2024-01-16T05:37:28;10.83;;;6.03;;
16193;SDS011;8204;53.582;10.080;2024-01-16T05:39:54;9.30;;;5.73;;
16193;SDS011;8204;53.582;10.080;2024-01-16T05:42:20;5.23;;;4.67;;
16193;SDS011;8204;53.582;10.080;2024-01-16T05:44:46;7.20;;;5.87;;
16193;SDS011;8204;53.582;10.080;2024-01-16T05:47:11;4.97;;;4.50;;
16193;SDS011;8204;53.582;10.080;2024-01-16T05:49:37;10.90;;;5.00;;
16193;SDS011;8204;53.582;10.080;2024-01-16T05:52:03;4.83;;;4.20;;
16193;SDS011;8204;53.582;10.080;2024-01-16T05:54:28;8.70;;;6.13;;
16193;SDS011;8204;53.582;10.080;2024-01-16T05:56:54;5.80;;;4.67;;
16193;SDS011;8204;53.582;10.080;2024-01-16T05:59:20;5.33;;;4.77;;
16193;SDS011;8204;53.582;10.080;2024-01-16T06:01:46;5.27;;;4.53;;
16193;SDS011;8204;53.582;10.080;2024-01-16T06:04:12;4.87;;;4.13;;
16193;SDS011;8204;53.582;10.080;2024-01-16T06:06:37;4.30;;;4.00;;
16193;SDS011;8204;53.582;10.080;2024-01-16T06:09:03;3.93;;;3.53;;
16193;SDS011;8204;53.582;10.080;2024-01-16T06:11:31;6.10;;;2.77;;
16193;SDS011;8204;53.582;10.080;2024-01-16T06:13:57;3.87;;;3.50;;
16193;SDS011;8204;53.582;10.080;2024-01-16T06:16:23;2.40;;;2.03;;
16193;SDS011;8204;53.582;10.080;2024-01-16T06:18:49;5.40;;;2.13;;
16193;SDS011;8204;53.582;10.080;2024-01-16T06:21:15;2.17;;;2.00;;
16193;SDS011;8204;53.582;10.080;2024-01-16T06:23:41;2.40;;;2.20;;
16193;SDS011;8204;53.582;10.080;2024-01-16T06:26:08;4.67;;;2.33;;
16193;SDS011;8204;53.582;10.080;2024-01-16T06:28:33;3.17;;;2.07;;
16193;SDS011;8204;53.582;10.080;2024-01-16T06:30:59;6.13;;;2.70;;
16193;SDS011;8204;53.582;10.080;2024-01-16T06:33:24;3.00;;;2.10;;
16193;SDS011;8204;53.582;10.080;2024-01-16T06:35:51;5.13;;;2.53;;
16193;SDS011;8204;53.582;10.080;2024-01-16T06:38:16;4.37;;;2.80;;
16193;SDS011;8204;53.582;10.080;2024-01-16T06:40:41;2.77;;;2.57;;
16193;SDS011;8204;53.582;10.080;2024-01-16T06:43:07;2.43;;;2.23;;
16193;SDS011;8204;53.582;10.080;2024-01-16T06:45:33;3.60;;;3.30;;
16193;SDS011;8204;53.582;10.080;2024-01-16T06:48:00;6.33;;;2.50;;
16193;SDS011;8204;53.582;10.080;2024-01-16T06:50:26;4.90;;;2.60;;
16193;SDS011;8204;53.582;10.080;2024-01-16T06:52:52;5.33;;;3.27;;
16193;SDS011;8204;53.582;10.080;2024-01-16T06:55:18;5.83;;;3.17;;
16193;SDS011;8204;53.582;10.080;2024-01-16T06:57:44;2.80;;;2.60;;
16193;SDS011;8204;53.582;10.080;2024-01-16T07:00:13;3.50;;;2.93;;
16193;SDS011;8204;53.582;10.080;2024-01-16T07:02:39;4.57;;;2.30;;
16193;SDS011;8204;53.582;10.080;2024-01-16T07:05:05;3.87;;;2.70;;
16193;SDS011;8204;53.582;10.080;2024-01-16T07:07:31;4.33;;;3.27;;
16193;SDS011;8204;53.582;10.080;2024-01-16T07:09:57;5.23;;;3.30;;
16193;SDS011;8204;53.582;10.080;2024-01-16T07:12:23;4.73;;;3.27;;
16193;SDS011;8204;53.582;10.080;2024-01-16T07:14:48;5.30;;;3.30;;
16193;SDS011;8204;53.582;10.080;2024-01-16T07:17:14;5.00;;;2.97;;
16193;SDS011;8204;53.582;10.080;2024-01-16T07:19:40;5.23;;;4.00;;
16193;SDS011;8204;53.582;10.080;2024-01-16T07:22:05;4.90;;;3.23;;
16193;SDS011;8204;53.582;10.080;2024-01-16T07:24:31;6.80;;;3.50;;
16193;SDS011;8204;53.582;10.080;2024-01-16T07:26:58;5.43;;;3.70;;
16193;SDS011;8204;53.582;10.080;2024-01-16T07:29:23;4.83;;;3.57;;
16193;SDS011;8204;53.582;10.080;2024-01-16T07:31:50;4.13;;;3.67;;
16193;SDS011;8204;53.582;10.080;2024-01-16T07:34:17;8.47;;;4.37;;
16193;SDS011;8204;53.582;10.080;2024-01-16T07:36:46;4.80;;;3.63;;
16193;SDS011;8204;53.582;10.080;2024-01-16T07:39:11;4.73;;;3.67;;
16193;SDS011;8204;53.582;10.080;2024-01-16T07:41:37;7.77;;;4.40;;
16193;SDS011;8204;53.582;10.080;2024-01-16T07:44:03;8.70;;;5.13;;
16193;SDS011;8204;53.582;10.080;2024-01-16T07:46:29;5.23;;;4.67;;
16193;SDS011;8204;53.582;10.080;2024-01-16T07:48:55;10.43;;;4.13;;
16193;SDS011;8204;53.582;10.080;2024-01-16T07:51:20;7.80;;;4.50;;
16193;SDS011;8204;53.582;10.080;2024-01-16T07:53:46;4.97;;;4.47;;
16193;SDS011;8204;53.582;10.080;2024-01-16T07:56:15;5.37;;;4.70;;
16193;SDS011;8204;53.582;10.080;2024-01-16T07:58:40;5.10;;;4.40;;
16193;SDS011;8204;53.582;10.080;2024-01-16T08:01:06;9.97;;;5.53;;
16193;SDS011;8204;53.582;10.080;2024-01-16T08:03:32;9.07;;;6.13;;
16193;SDS011;8204;53.582;10.080;2024-01-16T08:05:58;6.03;;;5.40;;
16193;SDS011;8204;53.582;10.080;2024-01-16T08:08:24;6.90;;;6.20;;
16193;SDS011;8204;53.582;10.080;2024-01-16T08:10:50;7.00;;;6.30;;
16193;SDS011;8204;53.582;10.080;2024-01-16T08:13:16;7.83;;;7.23;;
16193;SDS011;8204;53.582;10.080;2024-01-16T08:15:41;9.67;;;8.07;;
16193;SDS011;8204;53.582;10.080;2024-01-16T08:18:06;8.93;;;7.17;;
16193;SDS011;8204;53.582;10.080;2024-01-16T08:20:33;11.67;;;7.53;;
16193;SDS011;8204;53.582;10.080;2024-01-16T08:22:59;10.07;;;7.83;;
16193;SDS011;8204;53.582;10.080;2024-01-16T08:25:24;7.20;;;6.53;;
16193;SDS011;8204;53.582;10.080;2024-01-16T08:27:50;8.07;;;6.47;;
16193;SDS011;8204;53.582;10.080;2024-01-16T08:30:16;8.67;;;5.63;;
16193;SDS011;8204;53.582;10.080;2024-01-16T08:32:42;7.10;;;5.67;;
16193;SDS011;8204;53.582;10.080;2024-01-16T08:35:07;10.57;;;5.47;;
16193;SDS011;8204;53.582;10.080;2024-01-16T08:37:34;5.90;;;5.30;;
16193;SDS011;8204;53.582;10.080;2024-01-16T08:40:00;7.43;;;5.27;;
16193;SDS011;8204;53.582;10.080;2024-01-16T08:42:26;11.20;;;6.30;;
16193;SDS011;8204;53.582;10.080;2024-01-16T08:44:51;12.70;;;5.30;;
16193;SDS011;8204;53.582;10.080;2024-01-16T08:47:17;13.40;;;4.40;;
16193;SDS011;8204;53.582;10.080;2024-01-16T08:49:43;9.73;;;5.53;;
16193;SDS011;8204;53.582;10.080;2024-01-16T08:52:08;5.30;;;4.57;;
16193;SDS011;8204;53.582;10.080;2024-01-16T08:54:35;5.83;;;5.33;;
16193;SDS011;8204;53.582;10.080;2024-01-16T08:57:00;10.33;;;5.00;;
16193;SDS011;8204;53.582;10.080;2024-01-16T08:59:27;8.20;;;5.67;;
16193;SDS011;8204;53.582;10.080;2024-01-16T09:01:53;6.33;;;5.33;;
16193;SDS011;8204;53.582;10.080;2024-01-16T09:04:19;8.63;;;6.13;;
16193;SDS011;8204;53.582;10.080;2024-01-16T09:06:44;11.00;;;6.67;;
16193;SDS011;8204;53.582;10.080;2024-01-16T09:09:10;9.67;;;6.50;;
16193;SDS011;8204;53.582;10.080;2024-01-16T09:11:37;6.97;;;5.77;;
16193;SDS011;8204;53.582;10.080;2024-01-16T09:14:03;10.60;;;6.80;;
16193;SDS011;8204;53.582;10.080;2024-01-16T09:16:28;9.53;;;7.50;;
16193;SDS011;8204;53.582;10.080;2024-01-16T09:18:54;8.27;;;6.67;;
16193;SDS011;8204;53.582;10.080;2024-01-16T09:21:20;13.43;;;7.87;;
16193;SDS011;8204;53.582;10.080;2024-01-16T09:23:45;10.03;;;6.77;;
16193;SDS011;8204;53.582;10.080;2024-01-16T09:26:10;9.63;;;6.93;;
16193;SDS011;8204;53.582;10.080;2024-01-16T09:28:36;12.70;;;6.20;;
16193;SDS011;8204;53.582;10.080;2024-01-16T09:31:02;13.80;;;6.87;;
16193;SDS011;8204;53.582;10.080;2024-01-16T09:33:28;7.90;;;6.60;;
16193;SDS011;8204;53.582;10.080;2024-01-16T09:35:54;6.07;;;5.47;;
16193;SDS011;8204;53.582;10.080;2024-01-16T09:38:20;7.60;;;6.60;;
16193;SDS011;8204;53.582;10.080;2024-01-16T09:40:46;8.70;;;5.07;;
16193;SDS011;8204;53.582;10.080;2024-01-16T09:43:12;10.67;;;5.37;;
16193;SDS011;8204;53.582;10.080;2024-01-16T09:45:39;5.30;;;4.83;;
16193;SDS011;8204;53.582;10.080;2024-01-16T09:48:04;9.50;;;5.87;;
16193;SDS011;8204;53.582;10.080;2024-01-16T09:50:30;7.00;;;4.83;;
16193;SDS011;8204;53.582;10.080;2024-01-16T09:52:56;7.73;;;4.60;;
16193;SDS011;8204;53.582;10.080;2024-01-16T09:55:24;5.33;;;4.87;;
16193;SDS011;8204;53.582;10.080;2024-01-16T09:57:51;5.23;;;4.40;;
16193;SDS011;8204;53.582;10.080;2024-01-16T10:00:18;6.27;;;4.97;;
16193;SDS011;8204;53.582;10.080;2024-01-16T10:02:45;5.33;;;4.37;;
16193;SDS011;8204;53.582;10.080;2024-01-16T10:05:11;6.77;;;4.97;;
16193;SDS011;8204;53.582;10.080;2024-01-16T10:07:38;8.20;;;4.53;;
16193;SDS011;8204;53.582;10.080;2024-01-16T10:10:06;6.43;;;4.60;;
16193;SDS011;8204;53.582;10.080;2024-01-16T10:12:32;4.63;;;4.20;;
16193;SDS011;8204;53.582;10.080;2024-01-16T10:14:58;5.47;;;4.67;;
16193;SDS011;8204;53.582;10.080;2024-01-16T10:17:43;6.73;;;3.63;;
16193;SDS011;8204;53.582;10.080;2024-01-16T10:20:09;6.93;;;3.90;;
16193;SDS011;8204;53.582;10.080;2024-01-16T10:22:39;4.77;;;2.90;;
16193;SDS011;8204;53.582;10.080;2024-01-16T10:25:17;4.70;;;2.50;;
16193;SDS011;8204;53.582;10.080;2024-01-16T10:27:44;6.63;;;3.80;;
16193;SDS011;8204;53.582;10.080;2024-01-16T10:30:11;7.93;;;3.13;;
16193;SDS011;8204;53.582;10.080;2024-01-16T10:32:38;7.17;;;3.57;;
16193;SDS011;8204;53.582;10.080;2024-01-16T10:35:08;2.63;;;2.43;;
16193;SDS011;8204;53.582;10.080;2024-01-16T10:37:55;7.23;;;3.03;;
16193;SDS011;8204;53.582;10.080;2024-01-16T10:40:22;14.60;;;7.33;;
16193;SDS011;8204;53.582;10.080;2024-01-16T10:42:59;9.07;;;6.60;;
16193;SDS011;8204;53.582;10.080;2024-01-16T10:45:29;49.83;;;21.53;;
16193;SDS011;8204;53.582;10.080;2024-01-16T10:50:28;9.67;;;4.70;;
16193;SDS011;8204;53.582;10.080;2024-01-16T10:52:54;3.10;;;2.27;;
16193;SDS011;8204;53.582;10.080;2024-01-16T10:55:23;5.10;;;3.13;;
16193;SDS011;8204;53.582;10.080;2024-01-16T10:57:50;4.60;;;2.87;;
16193;SDS011;8204;53.582;10.080;2024-01-16T11:00:22;6.90;;;2.70;;
16193;SDS011;8204;53.582;10.080;2024-01-16T11:03:01;4.60;;;2.00;;
16193;SDS011;8204;53.582;10.080;2024-01-16T11:05:33;3.63;;;2.13;;
16193;SDS011;8204;53.582;10.080;2024-01-16T11:08:00;7.50;;;2.47;;
16193;SDS011;8204;53.582;10.080;2024-01-16T11:10:26;5.23;;;3.13;;
16193;SDS011;8204;53.582;10.080;2024-01-16T11:12:52;5.83;;;3.63;;
16193;SDS011;8204;53.582;10.080;2024-01-16T11:15:19;8.47;;;2.30;;
16193;SDS011;8204;53.582;10.080;2024-01-16T11:17:45;2.37;;;2.17;;
16193;SDS011;8204;53.582;10.080;2024-01-16T11:20:11;5.20;;;2.80;;
16193;SDS011;8204;53.582;10.080;2024-01-16T11:22:39;6.67;;;2.57;;
16193;SDS011;8204;53.582;10.080;2024-01-16T11:25:07;10.13;;;2.93;;
16193;SDS011;8204;53.582;10.080;2024-01-16T11:27:43;6.90;;;3.63;;
16193;SDS011;8204;53.582;10.080;2024-01-16T11:30:13;5.27;;;2.43;;
16193;SDS011;8204;53.582;10.080;2024-01-16T11:32:55;6.43;;;2.33;;
16193;SDS011;8204;53.582;10.080;2024-01-16T11:35:32;8.67;;;2.63;;
16193;SDS011;8204;53.582;10.080;2024-01-16T11:38:15;7.20;;;2.90;;
16193;SDS011;8204;53.582;10.080;2024-01-16T11:40:42;3.77;;;2.40;;
16193;SDS011;8204;53.582;10.080;2024-01-16T11:48:31;8.60;;;3.67;;
16193;SDS011;8204;53.582;10.080;2024-01-16T11:50:57;4.60;;;2.83;;
16193;SDS011;8204;53.582;10.080;2024-01-16T11:53:41;5.63;;;2.60;;
16193;SDS011;8204;53.582;10.080;2024-01-16T11:58:48;4.90;;;2.63;;
16193;SDS011;8204;53.582;10.080;2024-01-16T12:01:18;11.93;;;3.27;;
16193;SDS011;8204;53.582;10.080;2024-01-16T12:04:01;2.47;;;2.23;;
16193;SDS011;8204;53.582;10.080;2024-01-16T12:06:27;5.20;;;2.83;;
16193;SDS011;8204;53.582;10.080;2024-01-16T12:08:52;3.83;;;2.97;;
16193;SDS011;8204;53.582;10.080;2024-01-16T12:11:18;7.00;;;3.53;;
16193;SDS011;8204;53.582;10.080;2024-01-16T12:14:00;4.10;;;2.43;;
16193;SDS011;8204;53.582;10.080;2024-01-16T12:16:26;2.83;;;2.30;;
16193;SDS011;8204;53.582;10.080;2024-01-16T12:19:03;4.90;;;3.23;;
16193;SDS011;8204;53.582;10.080;2024-01-16T12:21:39;4.93;;;2.87;;
16193;SDS011;8204;53.582;10.080;2024-01-16T12:24:07;8.17;;;3.00;;
16193;SDS011;8204;53.582;10.080;2024-01-16T12:26:32;6.13;;;3.93;;
16193;SDS011;8204;53.582;10.080;2024-01-16T12:28:58;4.27;;;2.40;;
16193;SDS011;8204;53.582;10.080;2024-01-16T12:31:23;2.37;;;2.13;;
16193;SDS011;8204;53.582;10.080;2024-01-16T12:33:52;4.80;;;2.37;;
16193;SDS011;8204;53.582;10.080;2024-01-16T12:36:19;10.77;;;2.57;;
16193;SDS011;8204;53.582;10.080;2024-01-16T12:38:53;5.70;;;3.23;;
16193;SDS011;8204;53.582;10.080;2024-01-16T12:41:20;2.13;;;1.90;;
16193;SDS011;8204;53.582;10.080;2024-01-16T12:43:48;4.77;;;2.97;;
16193;SDS011;8204;53.582;10.080;2024-01-16T12:46:15;7.77;;;2.87;;
16193;SDS011;8204;53.582;10.080;2024-01-16T12:48:40;10.17;;;3.40;;
16193;SDS011;8204;53.582;10.080;2024-01-16T12:51:06;6.47;;;3.73;;
16193;SDS011;8204;53.582;10.080;2024-01-16T12:53:32;4.27;;;2.70;;
16193;SDS011;8204;53.582;10.080;2024-01-16T12:56:04;8.60;;;3.17;;
16193;SDS011;8204;53.582;10.080;2024-01-16T12:58:33;4.50;;;2.33;;
16193;SDS011;8204;53.582;10.080;2024-01-16T13:01:20;4.93;;;2.90;;
16193;SDS011;8204;53.582;10.080;2024-01-16T13:03:49;4.70;;;3.10;;
16193;SDS011;8204;53.582;10.080;2024-01-16T13:06:17;3.03;;;2.43;;
16193;SDS011;8204;53.582;10.080;2024-01-16T13:08:49;9.00;;;3.83;;
16193;SDS011;8204;53.582;10.080;2024-01-16T13:11:16;6.77;;;2.63;;
16193;SDS011;8204;53.582;10.080;2024-01-16T13:13:46;6.13;;;3.57;;
16193;SDS011;8204;53.582;10.080;2024-01-16T13:16:17;6.07;;;3.07;;
16193;SDS011;8204;53.582;10.080;2024-01-16T13:18:42;3.57;;;2.60;;
16193;SDS011;8204;53.582;10.080;2024-01-16T13:21:08;5.83;;;2.67;;
16193;SDS011;8204;53.582;10.080;2024-01-16T13:23:34;4.70;;;2.43;;
16193;SDS011;8204;53.582;10.080;2024-01-16T13:26:00;6.10;;;3.63;;
16193;SDS011;8204;53.582;10.080;2024-01-16T13:28:30;4.30;;;2.20;;
16193;SDS011;8204;53.582;10.080;2024-01-16T13:30:56;3.50;;;2.03;;
16193;SDS011;8204;53.582;10.080;2024-01-16T13:33:22;6.33;;;2.43;;
16193;SDS011;8204;53.582;10.080;2024-01-16T13:35:53;5.60;;;3.20;;
16193;SDS011;8204;53.582;10.080;2024-01-16T13:38:22;4.73;;;2.27;;
16193;SDS011;8204;53.582;10.080;2024-01-16T13:40:48;3.83;;;2.20;;
16193;SDS011;8204;53.582;10.080;2024-01-16T13:43:15;3.97;;;2.73;;
16193;SDS011;8204;53.582;10.080;2024-01-16T13:45:41;4.60;;;3.30;;
16193;SDS011;8204;53.582;10.080;2024-01-16T13:48:06;3.07;;;2.77;;
16193;SDS011;8204;53.582;10.080;2024-01-16T13:50:32;5.53;;;4.07;;
16193;SDS011;8204;53.582;10.080;2024-01-16T13:52:58;11.80;;;4.83;;
16193;SDS011;8204;53.582;10.080;2024-01-16T13:55:27;6.03;;;3.47;;
16193;SDS011;8204;53.582;10.080;2024-01-16T13:57:52;5.70;;;4.20;;
16193;SDS011;8204;53.582;10.080;2024-01-16T14:00:18;6.23;;;3.30;;
16193;SDS011;8204;53.582;10.080;2024-01-16T14:02:47;5.27;;;4.00;;
16193;SDS011;8204;53.582;10.080;2024-01-16T14:05:15;5.07;;;3.70;;
16193;SDS011;8204;53.582;10.080;2024-01-16T14:07:42;7.60;;;5.13;;
16193;SDS011;8204;53.582;10.080;2024-01-16T14:10:12;7.90;;;5.07;;
16193;SDS011;8204;53.582;10.080;2024-01-16T14:12:42;8.13;;;6.43;;
16193;SDS011;8204;53.582;10.080;2024-01-16T14:15:10;8.30;;;5.47;;
16193;SDS011;8204;53.582;10.080;2024-01-16T14:17:44;7.00;;;6.40;;
16193;SDS011;8204;53.582;10.080;2024-01-16T14:20:11;9.13;;;7.67;;
16193;SDS011;8204;53.582;10.080;2024-01-16T14:22:37;12.03;;;6.20;;
16193;SDS011;8204;53.582;10.080;2024-01-16T14:25:03;11.80;;;6.97;;
16193;SDS011;8204;53.582;10.080;2024-01-16T14:30:09;8.87;;;8.00;;
16193;SDS011;8204;53.582;10.080;2024-01-16T14:32:42;10.17;;;6.77;;
16193;SDS011;8204;53.582;10.080;2024-01-16T14:35:10;12.00;;;7.50;;
16193;SDS011;8204;53.582;10.080;2024-01-16T14:37:39;12.23;;;6.30;;
16193;SDS011;8204;53.582;10.080;2024-01-16T14:40:06;10.03;;;6.80;;
16193;SDS011;8204;53.582;10.080;2024-01-16T14:42:37;14.80;;;7.13;;
16193;SDS011;8204;53.582;10.080;2024-01-16T14:45:04;6.60;;;5.83;;
16193;SDS011;8204;53.582;10.080;2024-01-16T14:47:31;9.40;;;6.60;;
16193;SDS011;8204;53.582;10.080;2024-01-16T14:49:56;5.83;;;5.27;;
16193;SDS011;8204;53.582;10.080;2024-01-16T14:52:22;5.50;;;4.90;;
16193;SDS011;8204;53.582;10.080;2024-01-16T14:54:48;5.47;;;4.83;;
16193;SDS011;8204;53.582;10.080;2024-01-16T14:57:15;5.87;;;5.33;;